Time,TemperatureF,DewpointF,PressureIn,WindDirection,WindDirectionDegrees,WindSpeedMPH,WindSpeedGustMPH,Humidity,HourlyPrecipIn,Conditions,Clouds,dailyrainin,SolarRadiationWatts/m^2,SoftwareType,DateUTC
2013-12-26 00:00:00,47.1,41.9,30.27,NNE,26,1.0,2.0,82,0.00,,,0.00,0.0,meteohub,2013-12-26 05:00:00,
2013-12-26 00:01:00,47.1,41.9,30.27,NNE,27,0.0,2.0,82,0.00,,,0.00,0.0,meteohub,2013-12-26 05:01:00,
2013-12-26 00:02:00,47.1,41.9,30.26,NNE,27,0.0,2.0,82,0.00,,,0.00,0.0,meteohub,2013-12-26 05:02:00,
2013-12-26 00:07:00,46.9,41.7,30.26,NNE,27,0.0,2.0,82,0.00,,,0.00,0.0,meteohub,2013-12-26 05:07:00,
2013-12-26 00:12:00,46.8,41.9,30.25,NNE,26,0.0,2.0,83,0.00,,,0.00,0.0,meteohub,2013-12-26 05:12:00,
2013-12-26 00:17:00,46.6,41.7,30.25,NW,325,0.0,1.0,83,0.00,,,0.00,0.0,meteohub,2013-12-26 05:17:00,
2013-12-26 00:22:00,46.4,41.9,30.25,NW,325,0.0,1.0,84,0.00,,,0.00,0.0,meteohub,2013-12-26 05:22:00,
2013-12-26 00:27:00,46.2,41.7,30.25,NW,325,0.0,1.0,84,0.00,,,0.00,0.0,meteohub,2013-12-26 05:27:00,
2013-12-26 00:32:00,46.0,41.5,30.25,NW,325,0.0,1.0,84,0.00,,,0.00,0.0,meteohub,2013-12-26 05:32:00,
2013-12-26 00:37:00,45.9,41.4,30.25,NW,325,0.0,0.0,84,0.00,,,0.00,0.0,meteohub,2013-12-26 05:37:00,
2013-12-26 00:42:00,45.9,41.5,30.25,NW,325,0.0,1.0,85,0.00,,,0.00,0.0,meteohub,2013-12-26 05:42:00,
2013-12-26 00:47:00,45.7,41.4,30.25,NW,325,0.0,1.0,85,0.00,,,0.00,0.0,meteohub,2013-12-26 05:47:00,
2013-12-26 00:52:00,45.7,41.4,30.25,NW,325,0.0,0.0,85,0.00,,,0.00,0.0,meteohub,2013-12-26 05:52:00,
2013-12-26 00:57:00,45.7,41.4,30.25,NW,326,1.0,0.0,85,0.00,,,0.00,0.0,meteohub,2013-12-26 05:57:00,
2013-12-26 01:02:00,45.5,41.2,30.24,NW,326,0.0,1.0,85,0.00,,,0.00,0.0,meteohub,2013-12-26 06:02:00,
2013-12-26 01:07:00,45.3,41.0,30.24,NW,326,0.0,2.0,85,0.00,,,0.00,0.0,meteohub,2013-12-26 06:07:00,
2013-12-26 01:12:00,45.1,40.8,30.24,NW,325,0.0,2.0,85,0.00,,,0.00,0.0,meteohub,2013-12-26 06:12:00,
2013-12-26 01:17:00,45.1,40.8,30.24,NW,325,0.0,1.0,85,0.00,,,0.00,0.0,meteohub,2013-12-26 06:17:00,
2013-12-26 01:23:00,45.1,40.8,30.24,NW,325,0.0,1.0,85,0.00,,,0.00,0.0,meteohub,2013-12-26 06:23:00,
2013-12-26 01:28:00,45.3,41.0,30.23,NNE,30,0.0,2.0,85,0.00,,,0.00,0.0,meteohub,2013-12-26 06:28:00,
2013-12-26 01:33:00,45.3,40.8,30.23,NE,44,0.0,3.0,84,0.00,,,0.00,0.0,meteohub,2013-12-26 06:33:00,
2013-12-26 01:38:00,45.3,40.8,30.23,NNE,26,1.0,5.0,84,0.00,,,0.00,0.0,meteohub,2013-12-26 06:38:00,
2013-12-26 01:43:00,45.5,41.0,30.22,North,0,2.0,5.0,84,0.00,,,0.00,0.0,meteohub,2013-12-26 06:43:00,
2013-12-26 01:48:00,45.3,40.8,30.22,NE,42,0.0,9.0,84,0.00,,,0.00,0.0,meteohub,2013-12-26 06:48:00,
2013-12-26 01:53:00,45.3,40.8,30.22,NE,34,0.0,9.0,84,0.00,,,0.00,0.0,meteohub,2013-12-26 06:53:00,
2013-12-26 01:58:00,45.3,40.8,30.22,NNE,14,1.0,9.0,84,0.00,,,0.00,0.0,meteohub,2013-12-26 06:58:00,
2013-12-26 02:03:00,45.3,40.8,30.23,NW,321,1.0,5.0,84,0.00,,,0.00,0.0,meteohub,2013-12-26 07:03:00,
2013-12-26 02:08:00,45.3,40.8,30.24,NW,321,0.0,5.0,84,0.00,,,0.00,0.0,meteohub,2013-12-26 07:08:00,
2013-12-26 02:13:00,45.1,40.8,30.24,WNW,298,0.0,4.0,85,0.00,,,0.00,0.0,meteohub,2013-12-26 07:13:00,
2013-12-26 02:18:00,45.1,40.8,30.24,WNW,298,0.0,3.0,85,0.00,,,0.00,0.0,meteohub,2013-12-26 07:18:00,
2013-12-26 02:23:00,45.1,40.8,30.24,WNW,290,0.0,3.0,85,0.00,,,0.00,0.0,meteohub,2013-12-26 07:23:00,
2013-12-26 02:28:00,45.1,40.6,30.24,WNW,290,0.0,3.0,84,0.00,,,0.00,0.0,meteohub,2013-12-26 07:28:00,
2013-12-26 02:33:00,45.1,40.8,30.24,West,275,0.0,2.0,85,0.00,,,0.00,0.0,meteohub,2013-12-26 07:33:00,
2013-12-26 02:38:00,45.1,40.6,30.24,NW,325,1.0,5.0,84,0.00,,,0.00,0.0,meteohub,2013-12-26 07:38:00,
2013-12-26 02:43:00,45.0,40.5,30.24,NW,325,0.0,5.0,84,0.00,,,0.00,0.0,meteohub,2013-12-26 07:43:00,
2013-12-26 02:48:00,45.0,40.5,30.23,NW,325,0.0,5.0,84,0.00,,,0.00,0.0,meteohub,2013-12-26 07:48:00,
2013-12-26 02:53:00,45.0,40.5,30.23,NW,325,0.0,3.0,84,0.00,,,0.00,0.0,meteohub,2013-12-26 07:53:00,
2013-12-26 02:58:00,45.0,40.5,30.23,SW,218,0.0,1.0,84,0.00,,,0.00,0.0,meteohub,2013-12-26 07:58:00,
2013-12-26 03:03:00,45.0,40.5,30.23,WSW,255,0.0,2.0,84,0.00,,,0.00,0.0,meteohub,2013-12-26 08:03:00,
2013-12-26 03:08:00,45.0,40.5,30.23,WSW,255,0.0,3.0,84,0.00,,,0.00,0.0,meteohub,2013-12-26 08:08:00,
2013-12-26 03:13:00,45.0,40.5,30.24,NW,304,2.0,3.0,84,0.00,,,0.00,0.0,meteohub,2013-12-26 08:13:00,
2013-12-26 03:18:00,45.0,40.6,30.24,NW,304,0.0,4.0,85,0.00,,,0.00,0.0,meteohub,2013-12-26 08:18:00,
2013-12-26 03:23:00,45.0,40.6,30.24,NW,304,0.0,4.0,85,0.00,,,0.00,0.0,meteohub,2013-12-26 08:23:00,
2013-12-26 03:28:00,45.0,40.6,30.24,WNW,303,0.0,4.0,85,0.00,,,0.00,0.0,meteohub,2013-12-26 08:28:00,
2013-12-26 03:33:00,45.0,40.6,30.24,WNW,294,1.0,2.0,85,0.00,,,0.00,0.0,meteohub,2013-12-26 08:33:00,
2013-12-26 03:38:00,44.8,40.5,30.24,WNW,294,0.0,3.0,85,0.00,,,0.00,0.0,meteohub,2013-12-26 08:38:00,
2013-12-26 03:43:00,45.0,40.6,30.23,WNW,294,0.0,3.0,85,0.00,,,0.00,0.0,meteohub,2013-12-26 08:43:00,
2013-12-26 03:48:00,44.8,40.5,30.24,WNW,294,0.0,3.0,85,0.00,,,0.00,0.0,meteohub,2013-12-26 08:48:00,
2013-12-26 03:53:00,44.8,40.5,30.23,NW,313,0.0,1.0,85,0.00,,,0.00,0.0,meteohub,2013-12-26 08:53:00,
2013-12-26 03:58:00,44.8,40.8,30.22,NNE,33,1.0,4.0,86,0.00,,,0.00,0.0,meteohub,2013-12-26 08:58:00,
2013-12-26 04:03:00,44.8,40.5,30.22,NNE,32,1.0,4.0,85,0.00,,,0.00,0.0,meteohub,2013-12-26 09:03:00,
2013-12-26 04:08:00,45.0,41.0,30.22,North,350,1.0,4.0,86,0.00,,,0.00,0.0,meteohub,2013-12-26 09:08:00,
2013-12-26 04:13:00,45.0,41.0,30.21,NNE,32,0.0,4.0,86,0.00,,,0.00,0.0,meteohub,2013-12-26 09:13:00,
2013-12-26 04:18:00,45.0,40.6,30.22,WNW,298,0.0,5.0,85,0.00,,,0.00,0.0,meteohub,2013-12-26 09:18:00,
2013-12-26 04:23:00,45.0,40.6,30.22,NNE,27,2.0,5.0,85,0.00,,,0.00,0.0,meteohub,2013-12-26 09:23:00,
2013-12-26 04:28:00,44.8,40.5,30.22,NE,41,0.0,5.0,85,0.00,,,0.00,0.0,meteohub,2013-12-26 09:28:00,
2013-12-26 04:33:00,44.8,40.5,30.21,North,5,0.0,4.0,85,0.00,,,0.00,0.0,meteohub,2013-12-26 09:33:00,
2013-12-26 04:38:00,44.8,40.5,30.20,NE,45,0.0,4.0,85,0.00,,,0.00,0.0,meteohub,2013-12-26 09:38:00,
2013-12-26 04:43:00,44.8,40.5,30.20,NE,41,2.0,3.0,85,0.00,,,0.00,0.0,meteohub,2013-12-26 09:43:00,
2013-12-26 04:48:00,44.8,40.8,30.20,NNE,33,0.0,6.0,86,0.00,,,0.00,0.0,meteohub,2013-12-26 09:48:00,
2013-12-26 04:53:00,44.8,40.8,30.20,NNE,25,0.0,6.0,86,0.00,,,0.00,0.0,meteohub,2013-12-26 09:53:00,
2013-12-26 04:58:00,44.6,40.6,30.20,NNW,329,0.0,6.0,86,0.00,,,0.00,0.0,meteohub,2013-12-26 09:58:00,
2013-12-26 05:03:00,44.6,40.6,30.20,NE,42,0.0,6.0,86,0.00,,,0.00,0.0,meteohub,2013-12-26 10:03:00,
2013-12-26 05:08:00,44.4,40.3,30.20,NW,304,0.0,6.0,85,0.00,,,0.00,0.0,meteohub,2013-12-26 10:08:00,
2013-12-26 05:13:00,44.4,40.5,30.21,West,278,3.0,6.0,86,0.00,,,0.00,0.0,meteohub,2013-12-26 10:13:00,
2013-12-26 05:18:00,44.4,40.3,30.22,WNW,286,2.0,6.0,85,0.00,,,0.00,0.0,meteohub,2013-12-26 10:18:00,
2013-12-26 05:23:00,44.4,40.3,30.22,NW,325,0.0,6.0,85,0.00,,,0.00,0.0,meteohub,2013-12-26 10:23:00,
2013-12-26 05:28:00,44.4,40.3,30.22,NW,320,0.0,4.0,85,0.00,,,0.00,0.0,meteohub,2013-12-26 10:28:00,
2013-12-26 05:33:00,44.4,40.3,30.22,NNW,344,0.0,4.0,85,0.00,,,0.00,0.0,meteohub,2013-12-26 10:33:00,
2013-12-26 05:38:00,44.2,40.1,30.21,NNE,32,0.0,3.0,85,0.00,,,0.00,0.0,meteohub,2013-12-26 10:38:00,
2013-12-26 05:43:00,44.2,40.1,30.21,NW,317,0.0,3.0,85,0.00,,,0.00,0.0,meteohub,2013-12-26 10:43:00,
2013-12-26 05:48:00,44.2,40.1,30.22,WNW,295,1.0,6.0,85,0.00,,,0.00,0.0,meteohub,2013-12-26 10:48:00,
2013-12-26 05:53:00,44.2,40.1,30.22,WNW,287,0.0,6.0,85,0.00,,,0.00,0.0,meteohub,2013-12-26 10:53:00,
2013-12-26 05:58:00,44.1,39.9,30.23,WNW,286,0.0,6.0,85,0.00,,,0.00,0.0,meteohub,2013-12-26 10:58:00,
2013-12-26 06:03:00,44.1,39.9,30.23,West,280,0.0,5.0,85,0.00,,,0.00,0.0,meteohub,2013-12-26 11:03:00,
2013-12-26 06:08:00,44.1,39.9,30.23,WNW,297,1.0,5.0,85,0.00,,,0.00,0.0,meteohub,2013-12-26 11:08:00,
2013-12-26 06:13:00,44.1,39.9,30.24,WNW,296,0.0,5.0,85,0.00,,,0.00,0.0,meteohub,2013-12-26 11:13:00,
2013-12-26 06:18:00,44.1,39.9,30.23,WNW,296,1.0,6.0,85,0.00,,,0.00,0.0,meteohub,2013-12-26 11:18:00,
2013-12-26 06:23:00,44.1,39.9,30.22,NNE,17,0.0,6.0,85,0.00,,,0.00,0.0,meteohub,2013-12-26 11:23:00,
2013-12-26 06:28:00,44.1,39.9,30.23,WNW,303,0.0,6.0,85,0.00,,,0.00,0.0,meteohub,2013-12-26 11:28:00,
2013-12-26 06:33:00,43.9,39.7,30.23,NW,321,0.0,6.0,85,0.00,,,0.00,0.0,meteohub,2013-12-26 11:33:00,
2013-12-26 06:38:00,43.9,39.7,30.24,WNW,300,0.0,4.0,85,0.00,,,0.00,0.0,meteohub,2013-12-26 11:38:00,
2013-12-26 06:43:00,43.9,39.7,30.24,West,276,1.0,4.0,85,0.00,,,0.00,0.0,meteohub,2013-12-26 11:43:00,
2013-12-26 06:48:00,43.9,39.7,30.25,West,279,3.0,6.0,85,0.00,,,0.00,0.0,meteohub,2013-12-26 11:48:00,
2013-12-26 06:53:00,43.7,39.6,30.25,WNW,296,1.0,6.0,85,0.00,,,0.00,0.0,meteohub,2013-12-26 11:53:00,
2013-12-26 06:58:00,43.7,39.6,30.25,WNW,290,1.0,5.0,85,0.00,,,0.00,0.0,meteohub,2013-12-26 11:58:00,
2013-12-26 07:03:00,43.7,39.6,30.25,WNW,296,1.0,4.0,85,0.00,,,0.00,0.0,meteohub,2013-12-26 12:03:00,
2013-12-26 07:08:00,43.5,39.4,30.25,WNW,294,0.0,4.0,85,0.00,,,0.00,0.0,meteohub,2013-12-26 12:08:00,
2013-12-26 07:13:00,43.5,39.4,30.25,NNW,344,0.0,3.0,85,0.00,,,0.00,0.0,meteohub,2013-12-26 12:13:00,
2013-12-26 07:18:00,43.5,39.6,30.25,NNE,18,1.0,3.0,86,0.00,,,0.00,0.0,meteohub,2013-12-26 12:18:00,
2013-12-26 07:23:00,43.5,39.4,30.25,WNW,294,0.0,2.0,85,0.00,,,0.00,0.0,meteohub,2013-12-26 12:23:00,
2013-12-26 07:28:00,43.5,39.4,30.25,WNW,294,0.0,4.0,85,0.00,,,0.00,0.0,meteohub,2013-12-26 12:28:00,
2013-12-26 07:33:00,43.5,39.4,30.25,WNW,301,0.0,4.0,85,0.00,,,0.00,0.0,meteohub,2013-12-26 12:33:00,
2013-12-26 07:38:00,43.5,39.4,30.25,WNW,288,1.0,4.0,85,0.00,,,0.00,0.0,meteohub,2013-12-26 12:38:00,
2013-12-26 07:43:00,43.5,39.4,30.26,WNW,300,0.0,5.0,85,0.00,,,0.00,0.0,meteohub,2013-12-26 12:43:00,
2013-12-26 07:48:00,43.5,39.4,30.26,WNW,286,2.0,5.0,85,0.00,,,0.00,5.0,meteohub,2013-12-26 12:48:00,
2013-12-26 07:53:00,43.5,39.4,30.26,NNW,337,0.0,4.0,85,0.00,,,0.00,5.0,meteohub,2013-12-26 12:53:00,
2013-12-26 07:58:00,43.5,39.4,30.26,NNW,344,0.0,6.0,85,0.00,,,0.00,7.0,meteohub,2013-12-26 12:58:00,
2013-12-26 07:59:00,43.5,39.4,30.26,NNW,334,0.0,6.0,85,0.00,,,0.00,7.0,meteohub,2013-12-26 12:59:00,
2013-12-26 08:04:00,43.5,39.4,30.27,NW,319,0.0,6.0,85,0.00,,,0.00,7.0,meteohub,2013-12-26 13:04:00,
2013-12-26 08:09:00,43.5,39.4,30.26,NNE,26,1.0,6.0,85,0.00,,,0.00,11.0,meteohub,2013-12-26 13:09:00,
2013-12-26 08:14:00,43.5,39.4,30.27,WNW,298,0.0,5.0,85,0.00,,,0.00,9.0,meteohub,2013-12-26 13:14:00,
2013-12-26 08:19:00,43.5,39.4,30.26,WNW,290,0.0,5.0,85,0.00,,,0.00,12.0,meteohub,2013-12-26 13:19:00,
2013-12-26 08:24:00,43.7,39.6,30.26,NW,304,0.0,5.0,85,0.00,,,0.00,21.0,meteohub,2013-12-26 13:24:00,
2013-12-26 08:29:00,43.7,39.6,30.26,NE,46,1.0,6.0,85,0.00,,,0.00,19.0,meteohub,2013-12-26 13:29:00,
2013-12-26 08:34:00,43.9,39.7,30.26,NE,45,0.0,6.0,85,0.00,,,0.00,21.0,meteohub,2013-12-26 13:34:00,
2013-12-26 08:39:00,43.9,39.7,30.26,NW,305,0.0,6.0,85,0.00,,,0.00,23.0,meteohub,2013-12-26 13:39:00,
2013-12-26 08:44:00,43.9,39.7,30.27,WNW,290,3.0,4.0,85,0.00,,,0.00,32.0,meteohub,2013-12-26 13:44:00,
2013-12-26 08:49:00,43.9,39.7,30.27,NW,322,0.0,5.0,85,0.00,,,0.00,33.0,meteohub,2013-12-26 13:49:00,
2013-12-26 08:54:00,43.9,39.7,30.27,WNW,288,1.0,5.0,85,0.00,,,0.00,30.0,meteohub,2013-12-26 13:54:00,
2013-12-26 08:59:00,44.1,39.9,30.28,WNW,290,1.0,5.0,85,0.00,,,0.00,33.0,meteohub,2013-12-26 13:59:00,
2013-12-26 09:04:00,44.1,39.9,30.28,WNW,290,0.0,4.0,85,0.00,,,0.00,44.0,meteohub,2013-12-26 14:04:00,
2013-12-26 09:09:00,44.2,40.1,30.28,WNW,299,0.0,4.0,85,0.00,,,0.00,70.0,meteohub,2013-12-26 14:09:00,
2013-12-26 09:14:00,44.2,40.1,30.29,NW,315,0.0,4.0,85,0.00,,,0.00,95.0,meteohub,2013-12-26 14:14:00,
2013-12-26 09:19:00,44.4,40.3,30.29,NNE,18,2.0,5.0,85,0.00,,,0.00,121.0,meteohub,2013-12-26 14:19:00,
2013-12-26 09:24:00,44.6,40.1,30.29,NW,316,0.0,5.0,84,0.00,,,0.00,83.0,meteohub,2013-12-26 14:24:00,
2013-12-26 09:29:00,44.6,40.1,30.28,NNW,338,2.0,5.0,84,0.00,,,0.00,84.0,meteohub,2013-12-26 14:29:00,
2013-12-26 09:34:00,44.8,40.3,30.29,NE,55,0.0,5.0,84,0.00,,,0.00,69.0,meteohub,2013-12-26 14:34:00,
2013-12-26 09:39:00,45.0,40.6,30.28,NE,55,0.0,5.0,85,0.00,,,0.00,69.0,meteohub,2013-12-26 14:39:00,
2013-12-26 09:44:00,45.0,40.5,30.29,WNW,284,0.0,4.0,84,0.00,,,0.00,86.0,meteohub,2013-12-26 14:44:00,
2013-12-26 09:49:00,45.0,40.5,30.29,WNW,291,1.0,2.0,84,0.00,,,0.00,76.0,meteohub,2013-12-26 14:49:00,
2013-12-26 09:54:00,45.0,40.5,30.29,NNE,31,0.0,4.0,84,0.00,,,0.00,98.0,meteohub,2013-12-26 14:54:00,
2013-12-26 09:59:00,45.0,40.5,30.30,WNW,284,0.0,5.0,84,0.00,,,0.00,81.0,meteohub,2013-12-26 14:59:00,
2013-12-26 10:04:00,45.1,40.6,30.30,WNW,289,0.0,5.0,84,0.00,,,0.00,62.0,meteohub,2013-12-26 15:04:00,
2013-12-26 10:09:00,45.1,40.6,30.29,WNW,285,0.0,5.0,84,0.00,,,0.00,49.0,meteohub,2013-12-26 15:09:00,
2013-12-26 10:14:00,45.1,40.8,30.29,NNE,19,0.0,5.0,85,0.00,,,0.00,69.0,meteohub,2013-12-26 15:14:00,
2013-12-26 10:19:00,45.1,41.2,30.29,NNE,19,0.0,3.0,86,0.00,,,0.00,70.0,meteohub,2013-12-26 15:19:00,
2013-12-26 10:24:00,45.1,41.2,30.30,WNW,302,0.0,2.0,86,0.00,,,0.00,91.0,meteohub,2013-12-26 15:24:00,
2013-12-26 10:29:00,45.3,41.4,30.29,WNW,302,0.0,2.0,86,0.00,,,0.00,113.0,meteohub,2013-12-26 15:29:00,
2013-12-26 10:34:00,45.3,41.7,30.30,WNW,283,1.0,2.0,87,0.00,,,0.00,79.0,meteohub,2013-12-26 15:34:00,
2013-12-26 10:39:00,45.3,41.7,30.30,NE,36,0.0,2.0,87,0.00,,,0.00,83.0,meteohub,2013-12-26 15:39:00,
2013-12-26 10:44:00,45.3,41.7,30.30,WNW,301,0.0,6.0,87,0.00,,,0.00,70.0,meteohub,2013-12-26 15:44:00,
2013-12-26 10:49:00,45.1,41.5,30.30,WNW,300,0.0,6.0,87,0.00,,,0.00,81.0,meteohub,2013-12-26 15:49:00,
2013-12-26 10:54:00,45.1,41.7,30.30,NNW,346,4.0,6.0,88,0.00,,,0.00,88.0,meteohub,2013-12-26 15:54:00,
2013-12-26 10:59:00,45.3,41.9,30.30,NW,307,0.0,3.0,88,0.00,,,0.00,148.0,meteohub,2013-12-26 15:59:00,
2013-12-26 11:04:00,45.3,41.9,30.30,WNW,291,1.0,4.0,88,0.00,,,0.00,146.0,meteohub,2013-12-26 16:04:00,
2013-12-26 11:09:00,45.7,42.3,30.29,NNW,342,0.0,5.0,88,0.00,,,0.00,151.0,meteohub,2013-12-26 16:09:00,
2013-12-26 11:14:00,45.9,41.9,30.28,NW,304,0.0,5.0,86,0.00,,,0.00,181.0,meteohub,2013-12-26 16:14:00,
2013-12-26 11:19:00,46.0,42.4,30.28,WNW,295,3.0,5.0,87,0.00,,,0.00,178.0,meteohub,2013-12-26 16:19:00,
2013-12-26 11:24:00,46.2,42.3,30.28,NNE,30,3.0,5.0,86,0.00,,,0.00,114.0,meteohub,2013-12-26 16:24:00,
2013-12-26 11:29:00,46.2,42.3,30.28,North,355,4.0,6.0,86,0.00,,,0.00,132.0,meteohub,2013-12-26 16:29:00,
2013-12-26 11:34:00,46.2,41.9,30.28,NW,313,0.0,6.0,85,0.00,,,0.00,148.0,meteohub,2013-12-26 16:34:00,
2013-12-26 11:39:00,46.6,42.3,30.28,WNW,285,0.0,7.0,85,0.00,,,0.00,162.0,meteohub,2013-12-26 16:39:00,
2013-12-26 11:44:00,46.8,42.4,30.27,WNW,286,0.0,7.0,85,0.00,,,0.00,148.0,meteohub,2013-12-26 16:44:00,
2013-12-26 11:49:00,46.9,42.6,30.27,NE,44,0.0,7.0,85,0.00,,,0.00,218.0,meteohub,2013-12-26 16:49:00,
2013-12-26 11:54:00,47.3,43.0,30.27,NW,304,1.0,5.0,85,0.00,,,0.00,241.0,meteohub,2013-12-26 16:54:00,
2013-12-26 11:59:00,47.7,43.3,30.26,NE,46,3.0,8.0,85,0.00,,,0.00,225.0,meteohub,2013-12-26 16:59:00,
2013-12-26 12:04:00,47.8,43.2,30.27,NNW,335,5.0,8.0,84,0.00,,,0.00,204.0,meteohub,2013-12-26 17:04:00,
2013-12-26 12:09:00,48.0,43.2,30.26,NE,44,2.0,8.0,83,0.00,,,0.00,139.0,meteohub,2013-12-26 17:09:00,
2013-12-26 12:14:00,48.0,43.2,30.25,NW,305,3.0,7.0,83,0.00,,,0.00,158.0,meteohub,2013-12-26 17:14:00,
2013-12-26 12:19:00,48.2,43.0,30.25,NW,304,4.0,7.0,82,0.00,,,0.00,193.0,meteohub,2013-12-26 17:19:00,
2013-12-26 12:24:00,48.6,43.7,30.24,WNW,303,0.0,7.0,83,0.00,,,0.00,200.0,meteohub,2013-12-26 17:24:00,
2013-12-26 12:29:00,48.9,43.7,30.25,North,355,0.0,6.0,82,0.00,,,0.00,185.0,meteohub,2013-12-26 17:29:00,
2013-12-26 12:34:00,49.3,43.7,30.24,NE,53,4.0,6.0,81,0.00,,,0.00,190.0,meteohub,2013-12-26 17:34:00,
2013-12-26 12:39:00,49.3,43.7,30.24,NE,34,2.0,4.0,81,0.00,,,0.00,236.0,meteohub,2013-12-26 17:39:00,
2013-12-26 12:44:00,49.1,43.2,30.24,WNW,290,1.0,7.0,80,0.00,,,0.00,236.0,meteohub,2013-12-26 17:44:00,
2013-12-26 12:49:00,49.3,43.3,30.24,North,5,3.0,8.0,80,0.00,,,0.00,218.0,meteohub,2013-12-26 17:49:00,
2013-12-26 12:54:00,49.3,43.7,30.24,NE,40,1.0,8.0,81,0.00,,,0.00,183.0,meteohub,2013-12-26 17:54:00,
2013-12-26 12:59:00,49.3,43.7,30.23,NE,43,0.0,8.0,81,0.00,,,0.00,241.0,meteohub,2013-12-26 17:59:00,
2013-12-26 13:04:00,49.3,43.7,30.23,NE,55,5.0,7.0,81,0.00,,,0.00,200.0,meteohub,2013-12-26 18:04:00,
2013-12-26 13:09:00,49.5,44.2,30.23,NNW,329,0.0,7.0,82,0.00,,,0.00,206.0,meteohub,2013-12-26 18:09:00,
2013-12-26 13:14:00,49.6,43.7,30.23,WNW,299,4.0,8.0,80,0.00,,,0.00,186.0,meteohub,2013-12-26 18:14:00,
2013-12-26 13:19:00,49.5,43.9,30.23,NNW,333,2.0,8.0,81,0.00,,,0.00,139.0,meteohub,2013-12-26 18:19:00,
2013-12-26 13:24:00,49.5,43.9,30.23,NE,34,0.0,8.0,81,0.00,,,0.00,134.0,meteohub,2013-12-26 18:24:00,
2013-12-26 13:29:00,49.6,44.1,30.23,NW,317,2.0,8.0,81,0.00,,,0.00,127.0,meteohub,2013-12-26 18:29:00,
2013-12-26 13:34:00,49.6,44.1,30.23,NNW,345,0.0,7.0,81,0.00,,,0.00,137.0,meteohub,2013-12-26 18:34:00,
2013-12-26 13:39:00,49.8,44.2,30.23,West,281,0.0,7.0,81,0.00,,,0.00,137.0,meteohub,2013-12-26 18:39:00,
2013-12-26 13:44:00,49.6,43.7,30.23,NNW,333,2.0,5.0,80,0.00,,,0.00,142.0,meteohub,2013-12-26 18:44:00,
2013-12-26 13:49:00,49.5,43.5,30.22,NNW,336,1.0,6.0,80,0.00,,,0.00,167.0,meteohub,2013-12-26 18:49:00,
2013-12-26 13:54:00,49.5,43.5,30.22,WNW,289,0.0,6.0,80,0.00,,,0.00,127.0,meteohub,2013-12-26 18:54:00,
2013-12-26 13:59:00,49.5,43.5,30.23,NW,325,1.0,7.0,80,0.00,,,0.00,127.0,meteohub,2013-12-26 18:59:00,
2013-12-26 14:04:00,49.5,43.5,30.22,WNW,282,1.0,7.0,80,0.00,,,0.00,171.0,meteohub,2013-12-26 19:04:00,
2013-12-26 14:09:00,49.6,43.3,30.22,WNW,296,0.0,6.0,79,0.00,,,0.00,151.0,meteohub,2013-12-26 19:09:00,
2013-12-26 14:14:00,49.6,43.7,30.22,NW,306,1.0,4.0,80,0.00,,,0.00,146.0,meteohub,2013-12-26 19:14:00,
2013-12-26 14:19:00,49.6,43.3,30.22,WNW,293,0.0,6.0,79,0.00,,,0.00,123.0,meteohub,2013-12-26 19:19:00,
2013-12-26 14:24:00,49.8,43.9,30.22,WNW,300,1.0,6.0,80,0.00,,,0.00,134.0,meteohub,2013-12-26 19:24:00,
2013-12-26 14:29:00,50.2,43.9,30.22,NNW,336,1.0,6.0,79,0.00,,,0.00,134.0,meteohub,2013-12-26 19:29:00,
2013-12-26 14:34:00,50.2,43.9,30.21,NW,304,0.0,5.0,79,0.00,,,0.00,155.0,meteohub,2013-12-26 19:34:00,
2013-12-26 14:39:00,50.4,44.1,30.21,NW,306,0.0,5.0,79,0.00,,,0.00,91.0,meteohub,2013-12-26 19:39:00,
2013-12-26 14:44:00,50.4,44.1,30.21,NW,309,3.0,5.0,79,0.00,,,0.00,149.0,meteohub,2013-12-26 19:44:00,
2013-12-26 14:49:00,50.5,44.2,30.21,NNE,29,0.0,5.0,79,0.00,,,0.00,192.0,meteohub,2013-12-26 19:49:00,
2013-12-26 14:54:00,50.7,44.1,30.21,NW,311,0.0,7.0,78,0.00,,,0.00,181.0,meteohub,2013-12-26 19:54:00,
2013-12-26 14:59:00,50.7,43.7,30.22,NNW,336,4.0,7.0,77,0.00,,,0.00,216.0,meteohub,2013-12-26 19:59:00,
2013-12-26 15:04:00,50.7,43.5,30.22,NNE,32,0.0,7.0,76,0.00,,,0.00,243.0,meteohub,2013-12-26 20:04:00,
2013-12-26 15:09:00,50.5,43.5,30.22,WNW,294,5.0,10.0,77,0.00,,,0.00,204.0,meteohub,2013-12-26 20:09:00,
2013-12-26 15:14:00,50.5,43.5,30.22,NNE,27,3.0,10.0,77,0.00,,,0.00,186.0,meteohub,2013-12-26 20:14:00,
2013-12-26 15:19:00,50.4,43.3,30.22,NW,310,1.0,6.0,77,0.00,,,0.00,200.0,meteohub,2013-12-26 20:19:00,
2013-12-26 15:24:00,50.4,43.3,30.22,NE,41,0.0,9.0,77,0.00,,,0.00,262.0,meteohub,2013-12-26 20:24:00,
2013-12-26 15:29:00,50.5,43.5,30.22,West,271,4.0,9.0,77,0.00,,,0.00,299.0,meteohub,2013-12-26 20:29:00,
2013-12-26 15:34:00,50.4,43.3,30.22,WNW,298,0.0,9.0,77,0.00,,,0.00,142.0,meteohub,2013-12-26 20:34:00,
2013-12-26 15:39:00,50.2,43.5,30.22,NW,324,0.0,10.0,78,0.00,,,0.00,127.0,meteohub,2013-12-26 20:39:00,
2013-12-26 15:44:00,49.8,43.5,30.22,NW,311,0.0,10.0,79,0.00,,,0.00,97.0,meteohub,2013-12-26 20:44:00,
2013-12-26 15:49:00,49.8,43.5,30.22,NNE,22,2.0,10.0,79,0.00,,,0.00,65.0,meteohub,2013-12-26 20:49:00,
2013-12-26 15:54:00,49.8,43.9,30.22,NW,311,0.0,6.0,80,0.00,,,0.00,84.0,meteohub,2013-12-26 20:54:00,
2013-12-26 15:59:00,49.8,44.2,30.22,NNE,30,3.0,5.0,81,0.00,,,0.00,229.0,meteohub,2013-12-26 20:59:00,
2013-12-26 16:04:00,50.2,44.2,30.22,NNE,21,0.0,7.0,80,0.00,,,0.00,181.0,meteohub,2013-12-26 21:04:00,
2013-12-26 16:09:00,50.4,44.4,30.22,West,276,5.0,7.0,80,0.00,,,0.00,146.0,meteohub,2013-12-26 21:09:00,
2013-12-26 16:14:00,50.2,44.2,30.22,NNW,338,1.0,7.0,80,0.00,,,0.00,95.0,meteohub,2013-12-26 21:14:00,
2013-12-26 16:19:00,50.0,44.1,30.22,NW,305,5.0,10.0,80,0.00,,,0.00,77.0,meteohub,2013-12-26 21:19:00,
2013-12-26 16:24:00,49.6,44.1,30.23,West,279,2.0,10.0,81,0.00,,,0.00,56.0,meteohub,2013-12-26 21:24:00,
2013-12-26 16:29:00,49.5,43.9,30.23,WNW,303,0.0,10.0,81,0.00,,,0.00,30.0,meteohub,2013-12-26 21:29:00,
2013-12-26 16:34:00,49.3,44.1,30.23,WNW,288,3.0,7.0,82,0.00,,,0.00,30.0,meteohub,2013-12-26 21:34:00,
2013-12-26 16:39:00,48.9,43.7,30.23,NW,321,0.0,5.0,82,0.00,,,0.00,37.0,meteohub,2013-12-26 21:39:00,
2013-12-26 16:44:00,48.7,43.9,30.23,NW,308,0.0,5.0,83,0.00,,,0.00,37.0,meteohub,2013-12-26 21:44:00,
2013-12-26 16:49:00,48.7,43.9,30.23,NNW,329,0.0,5.0,83,0.00,,,0.00,26.0,meteohub,2013-12-26 21:49:00,
2013-12-26 16:54:00,48.6,43.7,30.23,WNW,302,0.0,3.0,83,0.00,,,0.00,21.0,meteohub,2013-12-26 21:54:00,
2013-12-26 16:59:00,48.4,43.5,30.23,WNW,283,0.0,2.0,83,0.00,,,0.00,23.0,meteohub,2013-12-26 21:59:00,
2013-12-26 17:04:00,48.4,43.7,30.24,WNW,283,0.0,3.0,84,0.00,,,0.00,16.0,meteohub,2013-12-26 22:04:00,
2013-12-26 17:09:00,48.2,43.9,30.24,NW,310,1.0,3.0,85,0.00,,,0.00,14.0,meteohub,2013-12-26 22:09:00,
2013-12-26 17:14:00,48.0,43.7,30.23,NNW,333,4.0,4.0,85,0.00,,,0.00,7.0,meteohub,2013-12-26 22:14:00,
2013-12-26 17:19:00,48.0,43.7,30.24,WNW,292,6.0,6.0,85,0.00,,,0.00,0.0,meteohub,2013-12-26 22:19:00,
2013-12-26 17:24:00,47.8,43.5,30.23,NW,313,0.0,6.0,85,0.00,,,0.00,0.0,meteohub,2013-12-26 22:24:00,
2013-12-26 17:29:00,47.8,43.5,30.24,NW,321,0.0,6.0,85,0.00,,,0.00,0.0,meteohub,2013-12-26 22:29:00,
2013-12-26 17:34:00,47.8,43.9,30.24,NW,311,0.0,6.0,86,0.00,,,0.00,0.0,meteohub,2013-12-26 22:34:00,
2013-12-26 17:35:00,47.8,43.9,30.24,NW,310,0.0,6.0,86,0.00,,,0.00,0.0,meteohub,2013-12-26 22:35:00,
2013-12-26 17:40:00,47.8,43.9,30.24,NE,39,3.0,4.0,86,0.00,,,0.00,0.0,meteohub,2013-12-26 22:40:00,
2013-12-26 17:45:00,47.8,43.9,30.24,NNW,329,0.0,4.0,86,0.00,,,0.00,0.0,meteohub,2013-12-26 22:45:00,
2013-12-26 17:50:00,47.8,43.9,30.24,NNW,329,0.0,4.0,86,0.00,,,0.00,0.0,meteohub,2013-12-26 22:50:00,
2013-12-26 17:55:00,47.8,43.9,30.25,North,350,0.0,3.0,86,0.00,,,0.00,0.0,meteohub,2013-12-26 22:55:00,
2013-12-26 18:00:00,47.8,44.2,30.25,NNE,21,0.0,1.0,87,0.00,,,0.00,0.0,meteohub,2013-12-26 23:00:00,
2013-12-26 18:05:00,48.0,44.4,30.24,NE,40,0.0,2.0,87,0.00,,,0.00,0.0,meteohub,2013-12-26 23:05:00,
2013-12-26 18:10:00,47.8,44.2,30.24,NE,40,0.0,4.0,87,0.00,,,0.00,0.0,meteohub,2013-12-26 23:10:00,
2013-12-26 18:15:00,47.8,44.2,30.24,NE,40,0.0,4.0,87,0.00,,,0.00,0.0,meteohub,2013-12-26 23:15:00,
2013-12-26 18:20:00,47.8,44.2,30.25,NW,306,0.0,2.0,87,0.00,,,0.00,0.0,meteohub,2013-12-26 23:20:00,
2013-12-26 18:25:00,47.8,44.2,30.25,NW,306,0.0,2.0,87,0.00,,,0.00,0.0,meteohub,2013-12-26 23:25:00,
2013-12-26 18:30:00,47.8,44.2,30.25,NW,306,0.0,1.0,87,0.00,,,0.00,0.0,meteohub,2013-12-26 23:30:00,
2013-12-26 18:35:00,47.7,44.1,30.25,NW,306,0.0,0.0,87,0.00,,,0.00,0.0,meteohub,2013-12-26 23:35:00,
2013-12-26 18:36:00,47.7,44.1,30.25,NW,306,0.0,0.0,87,0.00,,,0.00,0.0,meteohub,2013-12-26 23:36:00,
2013-12-26 18:41:00,47.8,44.2,30.25,NW,306,0.0,1.0,87,0.00,,,0.00,0.0,meteohub,2013-12-26 23:41:00,
2013-12-26 18:42:00,47.8,44.2,30.25,NW,306,0.0,1.0,87,0.00,,,0.00,0.0,meteohub,2013-12-26 23:42:00,
2013-12-26 18:47:00,47.8,44.2,30.25,NW,306,0.0,1.0,87,0.00,,,0.00,0.0,meteohub,2013-12-26 23:47:00,
2013-12-26 18:49:00,47.8,44.2,30.25,NW,306,0.0,1.0,87,0.00,,,0.00,0.0,meteohub,2013-12-26 23:49:00,
2013-12-26 18:54:00,47.8,44.2,30.25,NW,306,0.0,1.0,87,0.00,,,0.00,0.0,meteohub,2013-12-26 23:54:00,
2013-12-26 18:59:00,47.8,44.4,30.25,NW,306,0.0,1.0,88,0.00,,,0.00,0.0,meteohub,2013-12-26 23:59:00,
2013-12-26 19:04:00,47.7,44.1,30.25,NW,306,0.0,1.0,87,0.00,,,0.00,0.0,meteohub,2013-12-27 00:04:00,
2013-12-26 19:09:00,47.7,44.2,30.26,NW,306,0.0,1.0,88,0.00,,,0.00,0.0,meteohub,2013-12-27 00:09:00,
2013-12-26 19:14:00,47.7,44.2,30.26,NW,306,0.0,0.0,88,0.00,,,0.00,0.0,meteohub,2013-12-27 00:14:00,
2013-12-26 19:19:00,47.7,44.2,30.27,NW,306,0.0,1.0,88,0.00,,,0.00,0.0,meteohub,2013-12-27 00:19:00,
2013-12-26 19:24:00,47.7,44.2,30.27,NW,306,0.0,1.0,88,0.00,,,0.00,0.0,meteohub,2013-12-27 00:24:00,
2013-12-26 19:29:00,47.7,44.2,30.27,NW,306,0.0,1.0,88,0.00,,,0.00,0.0,meteohub,2013-12-27 00:29:00,
2013-12-26 19:34:00,47.8,44.4,30.27,NW,306,0.0,1.0,88,0.00,,,0.00,0.0,meteohub,2013-12-27 00:34:00,
2013-12-26 19:39:00,47.8,44.4,30.27,NW,306,0.0,1.0,88,0.00,,,0.00,0.0,meteohub,2013-12-27 00:39:00,
2013-12-26 19:44:00,47.8,44.4,30.27,NW,306,0.0,1.0,88,0.00,,,0.00,0.0,meteohub,2013-12-27 00:44:00,
2013-12-26 19:49:00,47.8,44.4,30.27,NW,306,0.0,1.0,88,0.00,,,0.00,0.0,meteohub,2013-12-27 00:49:00,
2013-12-26 19:54:00,47.8,44.4,30.27,NW,306,0.0,1.0,88,0.00,,,0.00,0.0,meteohub,2013-12-27 00:54:00,
2013-12-26 19:59:00,47.8,44.4,30.27,NW,306,0.0,1.0,88,0.00,,,0.00,0.0,meteohub,2013-12-27 00:59:00,
2013-12-26 20:04:00,47.8,44.8,30.27,NW,306,0.0,1.0,89,0.00,,,0.00,0.0,meteohub,2013-12-27 01:04:00,
2013-12-26 20:09:00,47.8,44.4,30.27,NW,306,0.0,0.0,88,0.00,,,0.00,0.0,meteohub,2013-12-27 01:09:00,
2013-12-26 20:14:00,47.8,44.8,30.27,NW,306,1.0,0.0,89,0.00,,,0.00,0.0,meteohub,2013-12-27 01:14:00,
2013-12-26 20:19:00,47.8,44.8,30.27,NW,306,0.0,1.0,89,0.00,,,0.00,0.0,meteohub,2013-12-27 01:19:00,
2013-12-26 20:24:00,48.0,45.0,30.26,NW,306,0.0,1.0,89,0.00,,,0.00,0.0,meteohub,2013-12-27 01:24:00,
2013-12-26 20:29:00,48.0,45.0,30.26,NW,306,0.0,1.0,89,0.00,,,0.00,0.0,meteohub,2013-12-27 01:29:00,
2013-12-26 20:34:00,48.0,45.0,30.27,North,351,0.0,1.0,89,0.00,,,0.00,0.0,meteohub,2013-12-27 01:34:00,
2013-12-26 20:39:00,48.0,45.0,30.27,North,349,0.0,3.0,89,0.00,,,0.00,0.0,meteohub,2013-12-27 01:39:00,
2013-12-26 20:44:00,48.0,45.0,30.27,North,350,0.0,3.0,89,0.00,,,0.00,0.0,meteohub,2013-12-27 01:44:00,
2013-12-26 20:49:00,48.0,45.0,30.27,North,349,0.0,3.0,89,0.00,,,0.00,0.0,meteohub,2013-12-27 01:49:00,
2013-12-26 20:54:00,48.2,45.1,30.27,North,349,0.0,1.0,89,0.00,,,0.00,0.0,meteohub,2013-12-27 01:54:00,
2013-12-26 20:59:00,48.2,45.1,30.27,North,349,0.0,1.0,89,0.00,,,0.00,0.0,meteohub,2013-12-27 01:59:00,
2013-12-26 21:04:00,48.4,45.3,30.26,North,349,0.0,1.0,89,0.00,,,0.00,0.0,meteohub,2013-12-27 02:04:00,
2013-12-26 21:09:00,48.4,45.0,30.27,WNW,292,2.0,2.0,88,0.00,,,0.00,0.0,meteohub,2013-12-27 02:09:00,
2013-12-26 21:14:00,48.4,45.3,30.27,WNW,294,0.0,2.0,89,0.00,,,0.00,0.0,meteohub,2013-12-27 02:14:00,
2013-12-26 21:19:00,48.4,45.0,30.26,WNW,294,0.0,3.0,88,0.00,,,0.00,0.0,meteohub,2013-12-27 02:19:00,
2013-12-26 21:24:00,48.4,45.0,30.26,WNW,294,0.0,3.0,88,0.00,,,0.00,0.0,meteohub,2013-12-27 02:24:00,
2013-12-26 21:29:00,48.6,45.1,30.26,WNW,294,0.0,2.0,88,0.00,,,0.00,0.0,meteohub,2013-12-27 02:29:00,
2013-12-26 21:34:00,48.6,45.1,30.26,WNW,294,0.0,1.0,88,0.00,,,0.00,0.0,meteohub,2013-12-27 02:34:00,
2013-12-26 21:39:00,48.6,45.1,30.26,WNW,294,0.0,2.0,88,0.00,,,0.00,0.0,meteohub,2013-12-27 02:39:00,
2013-12-26 21:44:00,48.6,45.1,30.26,NNE,22,1.0,2.0,88,0.00,,,0.00,0.0,meteohub,2013-12-27 02:44:00,
2013-12-26 21:49:00,48.7,45.3,30.26,NNE,21,0.0,2.0,88,0.00,,,0.00,0.0,meteohub,2013-12-27 02:49:00,
2013-12-26 21:54:00,48.7,45.3,30.26,NNE,22,0.0,2.0,88,0.00,,,0.00,0.0,meteohub,2013-12-27 02:54:00,
2013-12-26 21:59:00,48.7,45.3,30.26,NW,318,0.0,2.0,88,0.00,,,0.00,0.0,meteohub,2013-12-27 02:59:00,
2013-12-26 22:04:00,48.7,45.3,30.27,NW,318,0.0,2.0,88,0.00,,,0.00,0.0,meteohub,2013-12-27 03:04:00,
2013-12-26 22:09:00,48.7,45.3,30.27,NW,304,2.0,2.0,88,0.00,,,0.00,0.0,meteohub,2013-12-27 03:09:00,
2013-12-26 22:14:00,48.7,45.0,30.27,NW,304,0.0,3.0,87,0.00,,,0.00,0.0,meteohub,2013-12-27 03:14:00,
2013-12-26 22:19:00,48.7,45.0,30.27,NW,304,0.0,3.0,87,0.00,,,0.00,0.0,meteohub,2013-12-27 03:19:00,
2013-12-26 22:24:00,48.7,45.0,30.27,NW,304,0.0,3.0,87,0.00,,,0.00,0.0,meteohub,2013-12-27 03:24:00,
2013-12-26 22:29:00,48.7,45.0,30.28,NW,304,0.0,1.0,87,0.00,,,0.00,0.0,meteohub,2013-12-27 03:29:00,
2013-12-26 22:34:00,48.7,45.0,30.28,NW,304,0.0,1.0,87,0.00,,,0.00,0.0,meteohub,2013-12-27 03:34:00,
2013-12-26 22:39:00,48.7,45.0,30.27,NW,304,0.0,1.0,87,0.00,,,0.00,0.0,meteohub,2013-12-27 03:39:00,
2013-12-26 22:44:00,48.7,45.0,30.28,NW,304,0.0,1.0,87,0.00,,,0.00,0.0,meteohub,2013-12-27 03:44:00,
2013-12-26 22:49:00,48.7,45.3,30.28,NW,304,0.0,0.0,88,0.00,,,0.00,0.0,meteohub,2013-12-27 03:49:00,
2013-12-26 22:54:00,48.7,45.0,30.28,NW,304,0.0,1.0,87,0.00,,,0.00,0.0,meteohub,2013-12-27 03:54:00,
2013-12-26 22:59:00,48.7,45.3,30.28,NW,304,0.0,2.0,88,0.00,,,0.00,0.0,meteohub,2013-12-27 03:59:00,
2013-12-26 23:04:00,48.7,45.3,30.28,NW,304,0.0,2.0,88,0.00,,,0.00,0.0,meteohub,2013-12-27 04:04:00,
2013-12-26 23:09:00,48.7,45.3,30.28,NW,304,0.0,3.0,88,0.00,,,0.00,0.0,meteohub,2013-12-27 04:09:00,
2013-12-26 23:14:00,48.7,45.3,30.28,WNW,295,0.0,3.0,88,0.00,,,0.00,0.0,meteohub,2013-12-27 04:14:00,
2013-12-26 23:19:00,48.6,45.1,30.28,WNW,295,0.0,3.0,88,0.00,,,0.00,0.0,meteohub,2013-12-27 04:19:00,
2013-12-26 23:24:00,48.6,45.1,30.28,WNW,295,0.0,3.0,88,0.00,,,0.00,0.0,meteohub,2013-12-27 04:24:00,
2013-12-26 23:29:00,48.7,45.3,30.28,WNW,295,0.0,3.0,88,0.00,,,0.00,0.0,meteohub,2013-12-27 04:29:00,
2013-12-26 23:34:00,48.7,45.3,30.28,WNW,295,0.0,2.0,88,0.00,,,0.00,0.0,meteohub,2013-12-27 04:34:00,
2013-12-26 23:39:00,48.7,45.3,30.27,WNW,295,0.0,1.0,88,0.00,,,0.00,0.0,meteohub,2013-12-27 04:39:00,
2013-12-26 23:44:00,48.7,45.3,30.28,WNW,295,0.0,1.0,88,0.00,,,0.00,0.0,meteohub,2013-12-27 04:44:00,
2013-12-26 23:49:00,48.7,45.3,30.27,WNW,296,0.0,3.0,88,0.00,,,0.00,0.0,meteohub,2013-12-27 04:49:00,
2013-12-26 23:54:00,48.7,45.7,30.27,NW,326,0.0,3.0,89,0.00,,,0.00,0.0,meteohub,2013-12-27 04:54:00,
2013-12-26 23:59:00,48.7,45.7,30.28,NE,40,0.0,3.0,89,0.00,,,0.00,0.0,meteohub,2013-12-27 04:59:00,